sensor_id;sensor_type;location;lat;lon;timestamp;temperature;humidity
32769;DHT22;23049;54.304;8.826;2022-08-01T00:02:10;18.20;99.90
32769;DHT22;23049;54.304;8.826;2022-08-01T00:04:35;18.20;99.90
32769;DHT22;23049;54.304;8.826;2022-08-01T00:07:01;18.10;99.90
32769;DHT22;23049;54.304;8.826;2022-08-01T00:09:27;18.10;99.90
32769;DHT22;23049;54.304;8.826;2022-08-01T00:11:52;18.10;99.90
32769;DHT22;23049;54.304;8.826;2022-08-01T00:14:18;18.10;99.90
32769;DHT22;23049;54.304;8.826;2022-08-01T00:16:44;18.00;99.90
32769;DHT22;23049;54.304;8.826;2022-08-01T00:19:10;18.10;99.90
32769;DHT22;23049;54.304;8.826;2022-08-01T00:21:35;18.00;99.90
32769;DHT22;23049;54.304;8.826;2022-08-01T00:26:35;18.00;99.90
32769;DHT22;23049;54.304;8.826;2022-08-01T00:29:01;18.00;99.90
32769;DHT22;23049;54.304;8.826;2022-08-01T00:31:26;18.00;99.90
32769;DHT22;23049;54.304;8.826;2022-08-01T00:33:52;18.00;99.90
32769;DHT22;23049;54.304;8.826;2022-08-01T00:36:18;18.00;99.90
32769;DHT22;23049;54.304;8.826;2022-08-01T00:41:27;18.00;99.90
32769;DHT22;23049;54.304;8.826;2022-08-01T00:43:52;17.90;99.90
32769;DHT22;23049;54.304;8.826;2022-08-01T00:46:18;17.90;99.90
32769;DHT22;23049;54.304;8.826;2022-08-01T00:48:44;18.00;99.90
32769;DHT22;23049;54.304;8.826;2022-08-01T00:51:10;17.90;99.90
32769;DHT22;23049;54.304;8.826;2022-08-01T00:53:36;17.90;99.90
32769;DHT22;23049;54.304;8.826;2022-08-01T00:56:02;18.00;99.90
32769;DHT22;23049;54.304;8.826;2022-08-01T00:58:28;17.90;99.90
32769;DHT22;23049;54.304;8.826;2022-08-01T01:00:56;18.00;99.90
32769;DHT22;23049;54.304;8.826;2022-08-01T01:03:23;18.00;99.90
32769;DHT22;23049;54.304;8.826;2022-08-01T01:06:05;18.00;99.90
32769;DHT22;23049;54.304;8.826;2022-08-01T01:08:41;18.10;99.90
32769;DHT22;23049;54.304;8.826;2022-08-01T01:11:25;18.20;99.90
32769;DHT22;23049;54.304;8.826;2022-08-01T01:13:57;18.10;99.90
32769;DHT22;23049;54.304;8.826;2022-08-01T01:16:24;18.10;99.90
32769;DHT22;23049;54.304;8.826;2022-08-01T01:18:54;18.10;99.90
32769;DHT22;23049;54.304;8.826;2022-08-01T01:26:43;18.00;99.90
32769;DHT22;23049;54.304;8.826;2022-08-01T01:29:17;18.00;99.90
32769;DHT22;23049;54.304;8.826;2022-08-01T01:32:02;18.10;99.90
32769;DHT22;23049;54.304;8.826;2022-08-01T01:34:32;18.10;99.90
32769;DHT22;23049;54.304;8.826;2022-08-01T01:37:01;18.00;99.90
32769;DHT22;23049;54.304;8.826;2022-08-01T01:39:29;17.90;99.90
32769;DHT22;23049;54.304;8.826;2022-08-01T01:44:28;17.90;99.90
32769;DHT22;23049;54.304;8.826;2022-08-01T01:46:54;17.80;99.90
32769;DHT22;23049;54.304;8.826;2022-08-01T01:49:24;17.80;99.90
32769;DHT22;23049;54.304;8.826;2022-08-01T01:51:54;17.80;99.90
32769;DHT22;23049;54.304;8.826;2022-08-01T01:54:20;17.70;99.90
32769;DHT22;23049;54.304;8.826;2022-08-01T01:56:47;17.70;99.90
32769;DHT22;23049;54.304;8.826;2022-08-01T01:59:21;17.70;99.90
32769;DHT22;23049;54.304;8.826;2022-08-01T02:01:51;17.60;99.90
32769;DHT22;23049;54.304;8.826;2022-08-01T02:04:20;17.60;99.90
32769;DHT22;23049;54.304;8.826;2022-08-01T02:06:47;17.60;99.90
32769;DHT22;23049;54.304;8.826;2022-08-01T02:09:20;17.50;99.90
32769;DHT22;23049;54.304;8.826;2022-08-01T02:11:49;17.50;99.90
32769;DHT22;23049;54.304;8.826;2022-08-01T02:14:17;17.50;99.90
32769;DHT22;23049;54.304;8.826;2022-08-01T02:16:45;17.50;99.90
32769;DHT22;23049;54.304;8.826;2022-08-01T02:19:12;17.60;99.90
32769;DHT22;23049;54.304;8.826;2022-08-01T02:21:49;17.60;99.90
32769;DHT22;23049;54.304;8.826;2022-08-01T02:24:24;17.50;99.90
32769;DHT22;23049;54.304;8.826;2022-08-01T02:26:54;17.40;99.90
32769;DHT22;23049;54.304;8.826;2022-08-01T02:29:43;17.40;99.90
32769;DHT22;23049;54.304;8.826;2022-08-01T02:32:31;17.40;99.90
32769;DHT22;23049;54.304;8.826;2022-08-01T02:35:01;17.30;99.90
32769;DHT22;23049;54.304;8.826;2022-08-01T02:37:31;17.30;99.90
32769;DHT22;23049;54.304;8.826;2022-08-01T02:39:59;17.20;99.90
32769;DHT22;23049;54.304;8.826;2022-08-01T02:42:26;17.20;99.90
32769;DHT22;23049;54.304;8.826;2022-08-01T02:44:53;17.10;99.90
32769;DHT22;23049;54.304;8.826;2022-08-01T02:47:20;17.10;99.90
32769;DHT22;23049;54.304;8.826;2022-08-01T02:49:49;17.10;99.90
32769;DHT22;23049;54.304;8.826;2022-08-01T02:52:16;17.10;99.90
32769;DHT22;23049;54.304;8.826;2022-08-01T02:54:48;17.00;99.90
32769;DHT22;23049;54.304;8.826;2022-08-01T02:57:16;17.00;99.90
32769;DHT22;23049;54.304;8.826;2022-08-01T02:59:42;17.00;99.90
32769;DHT22;23049;54.304;8.826;2022-08-01T03:02:09;17.00;99.90
32769;DHT22;23049;54.304;8.826;2022-08-01T03:04:38;17.00;99.90
32769;DHT22;23049;54.304;8.826;2022-08-01T03:07:06;17.00;99.90
32769;DHT22;23049;54.304;8.826;2022-08-01T03:09:36;16.90;99.90
32769;DHT22;23049;54.304;8.826;2022-08-01T03:12:05;16.90;99.90
32769;DHT22;23049;54.304;8.826;2022-08-01T03:14:34;16.80;99.90
32769;DHT22;23049;54.304;8.826;2022-08-01T03:17:01;16.80;99.90
32769;DHT22;23049;54.304;8.826;2022-08-01T03:19:27;16.70;99.90
32769;DHT22;23049;54.304;8.826;2022-08-01T03:21:55;16.70;99.90
32769;DHT22;23049;54.304;8.826;2022-08-01T03:26:40;16.60;99.90
32769;DHT22;23049;54.304;8.826;2022-08-01T03:29:10;16.60;99.90
32769;DHT22;23049;54.304;8.826;2022-08-01T03:31:38;16.50;99.90
32769;DHT22;23049;54.304;8.826;2022-08-01T03:34:08;16.50;99.90
32769;DHT22;23049;54.304;8.826;2022-08-01T03:36:38;16.50;99.90
32769;DHT22;23049;54.304;8.826;2022-08-01T03:39:09;16.50;99.90
32769;DHT22;23049;54.304;8.826;2022-08-01T03:41:40;16.50;99.90
32769;DHT22;23049;54.304;8.826;2022-08-01T03:44:20;16.50;99.90
32769;DHT22;23049;54.304;8.826;2022-08-01T03:46:54;16.40;99.90
32769;DHT22;23049;54.304;8.826;2022-08-01T03:49:24;16.40;99.90
32769;DHT22;23049;54.304;8.826;2022-08-01T03:51:52;16.40;99.90
32769;DHT22;23049;54.304;8.826;2022-08-01T03:54:24;16.40;99.90
32769;DHT22;23049;54.304;8.826;2022-08-01T03:56:51;16.30;99.90
32769;DHT22;23049;54.304;8.826;2022-08-01T03:59:18;16.30;99.90
32769;DHT22;23049;54.304;8.826;2022-08-01T04:01:45;16.30;99.90
32769;DHT22;23049;54.304;8.826;2022-08-01T04:04:12;16.30;99.90
32769;DHT22;23049;54.304;8.826;2022-08-01T04:06:39;16.30;99.90
32769;DHT22;23049;54.304;8.826;2022-08-01T04:09:04;16.30;99.90
32769;DHT22;23049;54.304;8.826;2022-08-01T04:11:32;16.30;99.90
32769;DHT22;23049;54.304;8.826;2022-08-01T04:13:58;16.20;99.90
32769;DHT22;23049;54.304;8.826;2022-08-01T04:16:24;16.20;99.90
32769;DHT22;23049;54.304;8.826;2022-08-01T04:18:50;16.20;99.90
32769;DHT22;23049;54.304;8.826;2022-08-01T04:21:18;16.20;99.90
32769;DHT22;23049;54.304;8.826;2022-08-01T04:23:46;16.20;99.90
32769;DHT22;23049;54.304;8.826;2022-08-01T04:26:14;16.10;99.90
32769;DHT22;23049;54.304;8.826;2022-08-01T04:28:42;16.10;99.90
32769;DHT22;23049;54.304;8.826;2022-08-01T04:31:09;16.00;99.90
32769;DHT22;23049;54.304;8.826;2022-08-01T04:33:40;16.10;99.90
32769;DHT22;23049;54.304;8.826;2022-08-01T04:36:06;16.10;99.90
32769;DHT22;23049;54.304;8.826;2022-08-01T04:38:36;16.10;99.90
32769;DHT22;23049;54.304;8.826;2022-08-01T04:41:03;16.00;99.90
32769;DHT22;23049;54.304;8.826;2022-08-01T04:43:32;16.00;99.90
32769;DHT22;23049;54.304;8.826;2022-08-01T04:45:58;16.10;99.90
32769;DHT22;23049;54.304;8.826;2022-08-01T04:48:24;16.10;99.90
32769;DHT22;23049;54.304;8.826;2022-08-01T04:50:51;16.30;99.90
32769;DHT22;23049;54.304;8.826;2022-08-01T04:53:19;16.50;99.90
32769;DHT22;23049;54.304;8.826;2022-08-01T04:55:47;16.70;99.90
32769;DHT22;23049;54.304;8.826;2022-08-01T04:58:14;16.80;99.90
32769;DHT22;23049;54.304;8.826;2022-08-01T05:00:40;17.00;99.90
32769;DHT22;23049;54.304;8.826;2022-08-01T05:03:05;17.20;99.90
32769;DHT22;23049;54.304;8.826;2022-08-01T05:05:31;17.30;99.90
32769;DHT22;23049;54.304;8.826;2022-08-01T05:07:57;17.30;99.90
32769;DHT22;23049;54.304;8.826;2022-08-01T05:10:23;17.20;99.90
32769;DHT22;23049;54.304;8.826;2022-08-01T05:12:48;17.00;99.90
32769;DHT22;23049;54.304;8.826;2022-08-01T05:15:14;16.90;99.90
32769;DHT22;23049;54.304;8.826;2022-08-01T05:17:39;16.90;99.90
32769;DHT22;23049;54.304;8.826;2022-08-01T05:20:07;17.30;99.90
32769;DHT22;23049;54.304;8.826;2022-08-01T05:22:33;17.50;99.90
32769;DHT22;23049;54.304;8.826;2022-08-01T05:24:59;17.60;99.90
32769;DHT22;23049;54.304;8.826;2022-08-01T05:27:25;17.60;99.90
32769;DHT22;23049;54.304;8.826;2022-08-01T05:29:51;17.60;99.90
32769;DHT22;23049;54.304;8.826;2022-08-01T05:32:17;17.90;99.90
32769;DHT22;23049;54.304;8.826;2022-08-01T05:34:42;18.00;99.90
32769;DHT22;23049;54.304;8.826;2022-08-01T05:37:08;17.70;99.90
32769;DHT22;23049;54.304;8.826;2022-08-01T05:39:34;17.60;99.90
32769;DHT22;23049;54.304;8.826;2022-08-01T05:42:00;17.60;99.90
32769;DHT22;23049;54.304;8.826;2022-08-01T05:44:26;17.90;99.90
32769;DHT22;23049;54.304;8.826;2022-08-01T05:46:51;18.10;99.90
32769;DHT22;23049;54.304;8.826;2022-08-01T05:49:17;18.20;99.90
32769;DHT22;23049;54.304;8.826;2022-08-01T05:51:43;18.10;99.90
32769;DHT22;23049;54.304;8.826;2022-08-01T05:54:08;18.00;99.90
32769;DHT22;23049;54.304;8.826;2022-08-01T05:56:34;17.80;99.90
32769;DHT22;23049;54.304;8.826;2022-08-01T05:59:00;17.90;99.90
32769;DHT22;23049;54.304;8.826;2022-08-01T06:01:25;17.60;99.90
32769;DHT22;23049;54.304;8.826;2022-08-01T06:03:51;18.00;99.90
32769;DHT22;23049;54.304;8.826;2022-08-01T06:06:20;18.40;99.90
32769;DHT22;23049;54.304;8.826;2022-08-01T06:08:45;18.90;99.90
32769;DHT22;23049;54.304;8.826;2022-08-01T06:13:42;19.00;99.90
32769;DHT22;23049;54.304;8.826;2022-08-01T06:16:08;19.00;99.90
32769;DHT22;23049;54.304;8.826;2022-08-01T06:18:33;19.30;99.90
32769;DHT22;23049;54.304;8.826;2022-08-01T06:20:59;19.30;99.90
32769;DHT22;23049;54.304;8.826;2022-08-01T06:23:24;19.40;99.90
32769;DHT22;23049;54.304;8.826;2022-08-01T06:25:53;19.30;99.90
32769;DHT22;23049;54.304;8.826;2022-08-01T06:28:20;19.40;99.90
32769;DHT22;23049;54.304;8.826;2022-08-01T06:33:30;19.10;99.90
32769;DHT22;23049;54.304;8.826;2022-08-01T06:35:55;19.10;99.90
32769;DHT22;23049;54.304;8.826;2022-08-01T06:38:21;18.50;99.90
32769;DHT22;23049;54.304;8.826;2022-08-01T06:47:24;17.70;99.90
32769;DHT22;23049;54.304;8.826;2022-08-01T06:49:49;17.70;99.90
32769;DHT22;23049;54.304;8.826;2022-08-01T06:54:39;17.50;99.90
32769;DHT22;23049;54.304;8.826;2022-08-01T06:57:05;17.40;99.90
32769;DHT22;23049;54.304;8.826;2022-08-01T06:59:31;17.40;99.90
32769;DHT22;23049;54.304;8.826;2022-08-01T07:01:56;17.80;99.90
32769;DHT22;23049;54.304;8.826;2022-08-01T07:04:22;18.20;99.90
32769;DHT22;23049;54.304;8.826;2022-08-01T07:06:48;18.00;99.90
32769;DHT22;23049;54.304;8.826;2022-08-01T07:09:13;17.60;99.90
32769;DHT22;23049;54.304;8.826;2022-08-01T07:11:39;17.00;99.90
32769;DHT22;23049;54.304;8.826;2022-08-01T07:14:05;16.70;99.90
32769;DHT22;23049;54.304;8.826;2022-08-01T07:16:30;16.90;99.90
32769;DHT22;23049;54.304;8.826;2022-08-01T07:18:56;17.00;99.90
32769;DHT22;23049;54.304;8.826;2022-08-01T07:21:21;17.20;99.90
32769;DHT22;23049;54.304;8.826;2022-08-01T07:23:47;17.30;99.90
32769;DHT22;23049;54.304;8.826;2022-08-01T07:26:13;17.40;99.90
32769;DHT22;23049;54.304;8.826;2022-08-01T07:28:38;17.20;99.90
32769;DHT22;23049;54.304;8.826;2022-08-01T07:31:04;17.10;99.90
32769;DHT22;23049;54.304;8.826;2022-08-01T07:33:30;17.30;99.90
32769;DHT22;23049;54.304;8.826;2022-08-01T07:35:56;17.40;99.90
32769;DHT22;23049;54.304;8.826;2022-08-01T07:38:21;17.10;99.90
32769;DHT22;23049;54.304;8.826;2022-08-01T07:40:48;17.20;99.90
32769;DHT22;23049;54.304;8.826;2022-08-01T07:43:14;17.20;99.90
32769;DHT22;23049;54.304;8.826;2022-08-01T07:45:41;16.90;99.90
32769;DHT22;23049;54.304;8.826;2022-08-01T07:48:07;16.80;99.90
32769;DHT22;23049;54.304;8.826;2022-08-01T07:50:33;16.80;99.90
32769;DHT22;23049;54.304;8.826;2022-08-01T07:53:00;17.20;99.90
32769;DHT22;23049;54.304;8.826;2022-08-01T07:55:26;17.60;99.90
32769;DHT22;23049;54.304;8.826;2022-08-01T07:57:52;17.70;99.90
32769;DHT22;23049;54.304;8.826;2022-08-01T08:00:17;17.60;99.90
32769;DHT22;23049;54.304;8.826;2022-08-01T08:05:25;17.40;99.90
32769;DHT22;23049;54.304;8.826;2022-08-01T08:07:50;17.60;99.90
32769;DHT22;23049;54.304;8.826;2022-08-01T08:10:16;17.50;99.90
32769;DHT22;23049;54.304;8.826;2022-08-01T08:12:41;17.30;99.90
32769;DHT22;23049;54.304;8.826;2022-08-01T08:15:07;17.00;99.90
32769;DHT22;23049;54.304;8.826;2022-08-01T08:17:33;17.00;99.90
32769;DHT22;23049;54.304;8.826;2022-08-01T08:19:59;16.90;99.90
32769;DHT22;23049;54.304;8.826;2022-08-01T08:22:26;17.00;99.90
32769;DHT22;23049;54.304;8.826;2022-08-01T08:24:51;17.30;99.90
32769;DHT22;23049;54.304;8.826;2022-08-01T08:27:17;17.60;99.90
32769;DHT22;23049;54.304;8.826;2022-08-01T08:29:43;17.40;99.90
32769;DHT22;23049;54.304;8.826;2022-08-01T08:37:45;17.50;99.90
32769;DHT22;23049;54.304;8.826;2022-08-01T08:40:11;17.50;99.90
32769;DHT22;23049;54.304;8.826;2022-08-01T08:42:39;17.40;99.90
32769;DHT22;23049;54.304;8.826;2022-08-01T08:45:06;17.40;99.90
32769;DHT22;23049;54.304;8.826;2022-08-01T08:47:32;17.40;99.90
32769;DHT22;23049;54.304;8.826;2022-08-01T08:50:00;17.30;99.90
32769;DHT22;23049;54.304;8.826;2022-08-01T08:52:26;17.30;99.90
32769;DHT22;23049;54.304;8.826;2022-08-01T08:54:53;17.30;99.90
32769;DHT22;23049;54.304;8.826;2022-08-01T08:57:20;17.40;99.90
32769;DHT22;23049;54.304;8.826;2022-08-01T08:59:46;17.50;99.90
32769;DHT22;23049;54.304;8.826;2022-08-01T09:02:12;17.70;99.90
32769;DHT22;23049;54.304;8.826;2022-08-01T09:04:38;17.70;99.90
32769;DHT22;23049;54.304;8.826;2022-08-01T09:07:06;17.90;99.90
32769;DHT22;23049;54.304;8.826;2022-08-01T09:09:33;17.90;99.90
32769;DHT22;23049;54.304;8.826;2022-08-01T09:11:59;17.90;99.90
32769;DHT22;23049;54.304;8.826;2022-08-01T09:14:25;17.90;99.90
32769;DHT22;23049;54.304;8.826;2022-08-01T09:19:35;17.90;99.90
32769;DHT22;23049;54.304;8.826;2022-08-01T09:22:03;17.80;99.90
32769;DHT22;23049;54.304;8.826;2022-08-01T09:24:30;18.00;99.90
32769;DHT22;23049;54.304;8.826;2022-08-01T09:26:57;17.70;99.90
32769;DHT22;23049;54.304;8.826;2022-08-01T09:29:26;18.00;99.90
32769;DHT22;23049;54.304;8.826;2022-08-01T09:31:52;18.00;99.90
32769;DHT22;23049;54.304;8.826;2022-08-01T09:34:31;17.90;99.90
32769;DHT22;23049;54.304;8.826;2022-08-01T09:36:59;17.90;99.90
32769;DHT22;23049;54.304;8.826;2022-08-01T09:39:27;18.00;99.90
32769;DHT22;23049;54.304;8.826;2022-08-01T09:41:58;18.10;99.90
32769;DHT22;23049;54.304;8.826;2022-08-01T09:44:43;18.00;99.90
32769;DHT22;23049;54.304;8.826;2022-08-01T09:47:10;17.90;99.90
32769;DHT22;23049;54.304;8.826;2022-08-01T09:49:38;17.90;99.90
32769;DHT22;23049;54.304;8.826;2022-08-01T09:52:13;17.60;99.90
32769;DHT22;23049;54.304;8.826;2022-08-01T09:54:41;17.70;99.90
32769;DHT22;23049;54.304;8.826;2022-08-01T09:57:14;18.10;99.90
32769;DHT22;23049;54.304;8.826;2022-08-01T09:59:42;18.10;99.90
32769;DHT22;23049;54.304;8.826;2022-08-01T10:02:13;18.20;99.90
32769;DHT22;23049;54.304;8.826;2022-08-01T10:04:48;18.30;99.90
32769;DHT22;23049;54.304;8.826;2022-08-01T10:07:14;18.30;99.90
32769;DHT22;23049;54.304;8.826;2022-08-01T10:09:43;18.40;99.90
32769;DHT22;23049;54.304;8.826;2022-08-01T10:12:11;18.40;99.90
32769;DHT22;23049;54.304;8.826;2022-08-01T10:14:38;18.40;99.90
32769;DHT22;23049;54.304;8.826;2022-08-01T10:17:07;18.40;99.90
32769;DHT22;23049;54.304;8.826;2022-08-01T10:19:35;18.20;99.90
32769;DHT22;23049;54.304;8.826;2022-08-01T10:22:01;18.30;99.90
32769;DHT22;23049;54.304;8.826;2022-08-01T10:24:30;18.20;99.90
32769;DHT22;23049;54.304;8.826;2022-08-01T10:27:03;18.50;99.90
32769;DHT22;23049;54.304;8.826;2022-08-01T10:29:40;18.60;99.90
32769;DHT22;23049;54.304;8.826;2022-08-01T10:32:07;18.40;99.90
32769;DHT22;23049;54.304;8.826;2022-08-01T10:34:35;18.30;99.90
32769;DHT22;23049;54.304;8.826;2022-08-01T10:39:44;18.50;99.90
32769;DHT22;23049;54.304;8.826;2022-08-01T10:42:12;18.70;99.90
32769;DHT22;23049;54.304;8.826;2022-08-01T10:44:39;18.80;99.90
32769;DHT22;23049;54.304;8.826;2022-08-01T10:47:11;18.80;99.90
32769;DHT22;23049;54.304;8.826;2022-08-01T10:49:48;18.70;99.90
32769;DHT22;23049;54.304;8.826;2022-08-01T10:52:17;18.50;99.90
32769;DHT22;23049;54.304;8.826;2022-08-01T10:54:43;18.70;99.90
32769;DHT22;23049;54.304;8.826;2022-08-01T10:57:08;18.80;99.90
32769;DHT22;23049;54.304;8.826;2022-08-01T10:59:36;18.90;99.90
32769;DHT22;23049;54.304;8.826;2022-08-01T11:02:31;18.70;99.90
32769;DHT22;23049;54.304;8.826;2022-08-01T11:05:09;19.10;99.90
32769;DHT22;23049;54.304;8.826;2022-08-01T11:07:47;19.00;99.90
32769;DHT22;23049;54.304;8.826;2022-08-01T11:10:32;19.00;99.90
32769;DHT22;23049;54.304;8.826;2022-08-01T11:13:00;19.00;99.90
32769;DHT22;23049;54.304;8.826;2022-08-01T11:15:28;19.10;99.90
32769;DHT22;23049;54.304;8.826;2022-08-01T11:17:55;19.30;99.90
32769;DHT22;23049;54.304;8.826;2022-08-01T11:20:26;19.50;99.90
32769;DHT22;23049;54.304;8.826;2022-08-01T11:25:27;19.30;99.90
32769;DHT22;23049;54.304;8.826;2022-08-01T11:33:06;19.30;99.90
32769;DHT22;23049;54.304;8.826;2022-08-01T11:43:26;18.70;99.90
32769;DHT22;23049;54.304;8.826;2022-08-01T11:45:54;19.00;99.90
32769;DHT22;23049;54.304;8.826;2022-08-01T11:58:16;19.80;99.90
32769;DHT22;23049;54.304;8.826;2022-08-01T12:03:12;20.10;99.90
32769;DHT22;23049;54.304;8.826;2022-08-01T12:05:38;19.50;99.90
32769;DHT22;23049;54.304;8.826;2022-08-01T12:08:04;19.00;99.90
32769;DHT22;23049;54.304;8.826;2022-08-01T12:10:34;19.20;99.90
32769;DHT22;23049;54.304;8.826;2022-08-01T12:13:05;19.30;99.90
32769;DHT22;23049;54.304;8.826;2022-08-01T12:15:37;19.40;99.90
32769;DHT22;23049;54.304;8.826;2022-08-01T12:18:05;19.40;99.90
32769;DHT22;23049;54.304;8.826;2022-08-01T12:23:40;19.20;99.90
32769;DHT22;23049;54.304;8.826;2022-08-01T12:26:06;19.20;99.90
32769;DHT22;23049;54.304;8.826;2022-08-01T12:28:39;18.70;99.90
32769;DHT22;23049;54.304;8.826;2022-08-01T12:31:05;18.80;99.90
32769;DHT22;23049;54.304;8.826;2022-08-01T12:33:31;18.80;99.90
32769;DHT22;23049;54.304;8.826;2022-08-01T12:35:57;18.50;99.90
32769;DHT22;23049;54.304;8.826;2022-08-01T12:38:23;18.60;99.90
32769;DHT22;23049;54.304;8.826;2022-08-01T12:43:16;18.40;99.90
32769;DHT22;23049;54.304;8.826;2022-08-01T12:45:43;18.40;99.90
32769;DHT22;23049;54.304;8.826;2022-08-01T12:48:16;18.40;99.90
32769;DHT22;23049;54.304;8.826;2022-08-01T12:50:45;18.70;99.90
32769;DHT22;23049;54.304;8.826;2022-08-01T12:53:17;18.50;99.90
32769;DHT22;23049;54.304;8.826;2022-08-01T12:55:46;18.90;99.90
32769;DHT22;23049;54.304;8.826;2022-08-01T12:58:14;19.00;99.90
32769;DHT22;23049;54.304;8.826;2022-08-01T13:03:18;18.90;99.90
32769;DHT22;23049;54.304;8.826;2022-08-01T13:05:55;19.10;99.90
32769;DHT22;23049;54.304;8.826;2022-08-01T13:08:31;19.40;99.90
32769;DHT22;23049;54.304;8.826;2022-08-01T13:11:05;19.50;99.90
32769;DHT22;23049;54.304;8.826;2022-08-01T13:13:42;19.50;99.90
32769;DHT22;23049;54.304;8.826;2022-08-01T13:16:09;19.30;99.90
32769;DHT22;23049;54.304;8.826;2022-08-01T13:18:36;19.20;99.90
32769;DHT22;23049;54.304;8.826;2022-08-01T13:21:18;18.90;99.90
32769;DHT22;23049;54.304;8.826;2022-08-01T13:24:05;18.80;99.90
32769;DHT22;23049;54.304;8.826;2022-08-01T13:26:46;19.40;99.90
32769;DHT22;23049;54.304;8.826;2022-08-01T13:29:14;19.30;99.90
32769;DHT22;23049;54.304;8.826;2022-08-01T13:31:40;19.20;99.90
32769;DHT22;23049;54.304;8.826;2022-08-01T13:34:07;19.20;99.90
32769;DHT22;23049;54.304;8.826;2022-08-01T13:36:33;19.00;99.90
32769;DHT22;23049;54.304;8.826;2022-08-01T13:39:00;18.60;99.90
32769;DHT22;23049;54.304;8.826;2022-08-01T13:41:45;18.20;99.90
32769;DHT22;23049;54.304;8.826;2022-08-01T13:44:11;18.70;99.90
32769;DHT22;23049;54.304;8.826;2022-08-01T13:46:37;19.00;99.90
32769;DHT22;23049;54.304;8.826;2022-08-01T13:49:04;19.10;99.90
32769;DHT22;23049;54.304;8.826;2022-08-01T13:51:31;19.00;99.90
32769;DHT22;23049;54.304;8.826;2022-08-01T13:53:56;19.10;99.90
32769;DHT22;23049;54.304;8.826;2022-08-01T13:56:22;19.60;99.90
32769;DHT22;23049;54.304;8.826;2022-08-01T13:58:48;19.20;99.90
32769;DHT22;23049;54.304;8.826;2022-08-01T14:01:15;19.20;99.90
32769;DHT22;23049;54.304;8.826;2022-08-01T14:03:40;19.30;99.90
32769;DHT22;23049;54.304;8.826;2022-08-01T14:06:06;18.90;99.90
32769;DHT22;23049;54.304;8.826;2022-08-01T14:08:32;18.90;99.90
32769;DHT22;23049;54.304;8.826;2022-08-01T14:10:58;18.90;99.90
32769;DHT22;23049;54.304;8.826;2022-08-01T14:13:27;18.80;99.90
32769;DHT22;23049;54.304;8.826;2022-08-01T14:15:53;19.30;99.90
32769;DHT22;23049;54.304;8.826;2022-08-01T14:18:19;19.80;99.90
32769;DHT22;23049;54.304;8.826;2022-08-01T14:26:40;18.60;99.90
32769;DHT22;23049;54.304;8.826;2022-08-01T14:29:05;18.50;99.90
32769;DHT22;23049;54.304;8.826;2022-08-01T14:31:31;18.30;99.90
32769;DHT22;23049;54.304;8.826;2022-08-01T14:33:57;18.20;99.90
32769;DHT22;23049;54.304;8.826;2022-08-01T14:36:32;18.20;99.90
32769;DHT22;23049;54.304;8.826;2022-08-01T14:38:58;18.40;99.90
32769;DHT22;23049;54.304;8.826;2022-08-01T14:41:23;18.00;99.90
32769;DHT22;23049;54.304;8.826;2022-08-01T14:43:49;18.30;99.90
32769;DHT22;23049;54.304;8.826;2022-08-01T14:46:15;18.40;99.90
32769;DHT22;23049;54.304;8.826;2022-08-01T14:48:40;18.70;99.90
32769;DHT22;23049;54.304;8.826;2022-08-01T14:51:06;19.10;99.90
32769;DHT22;23049;54.304;8.826;2022-08-01T14:53:33;19.10;99.90
32769;DHT22;23049;54.304;8.826;2022-08-01T14:56:00;18.70;99.90
32769;DHT22;23049;54.304;8.826;2022-08-01T14:58:26;18.40;99.90
32769;DHT22;23049;54.304;8.826;2022-08-01T15:03:13;18.10;99.90
32769;DHT22;23049;54.304;8.826;2022-08-01T15:05:39;18.00;99.90
32769;DHT22;23049;54.304;8.826;2022-08-01T15:08:06;18.10;99.90
32769;DHT22;23049;54.304;8.826;2022-08-01T15:10:31;18.30;99.90
32769;DHT22;23049;54.304;8.826;2022-08-01T15:12:58;18.40;99.90
32769;DHT22;23049;54.304;8.826;2022-08-01T15:15:26;18.20;99.90
32769;DHT22;23049;54.304;8.826;2022-08-01T15:17:51;18.00;99.90
32769;DHT22;23049;54.304;8.826;2022-08-01T15:20:18;17.90;99.90
32769;DHT22;23049;54.304;8.826;2022-08-01T15:22:44;17.70;99.90
32769;DHT22;23049;54.304;8.826;2022-08-01T15:25:10;17.80;99.90
32769;DHT22;23049;54.304;8.826;2022-08-01T15:27:35;17.80;99.90
32769;DHT22;23049;54.304;8.826;2022-08-01T15:30:01;17.80;99.90
32769;DHT22;23049;54.304;8.826;2022-08-01T15:32:28;17.70;99.90
32769;DHT22;23049;54.304;8.826;2022-08-01T15:34:54;17.80;99.90
32769;DHT22;23049;54.304;8.826;2022-08-01T15:37:20;17.70;99.90
32769;DHT22;23049;54.304;8.826;2022-08-01T15:39:46;17.70;99.90
32769;DHT22;23049;54.304;8.826;2022-08-01T15:42:14;17.70;99.90
32769;DHT22;23049;54.304;8.826;2022-08-01T15:44:40;17.80;99.90
32769;DHT22;23049;54.304;8.826;2022-08-01T15:47:06;17.60;99.90
32769;DHT22;23049;54.304;8.826;2022-08-01T15:49:33;17.80;99.90
32769;DHT22;23049;54.304;8.826;2022-08-01T15:52:02;17.80;99.90
32769;DHT22;23049;54.304;8.826;2022-08-01T15:54:27;17.70;99.90
32769;DHT22;23049;54.304;8.826;2022-08-01T15:56:53;17.60;99.90
32769;DHT22;23049;54.304;8.826;2022-08-01T15:59:19;17.60;99.90
32769;DHT22;23049;54.304;8.826;2022-08-01T16:01:44;17.50;99.90
32769;DHT22;23049;54.304;8.826;2022-08-01T16:04:10;17.50;99.90
32769;DHT22;23049;54.304;8.826;2022-08-01T16:06:36;17.40;99.90
32769;DHT22;23049;54.304;8.826;2022-08-01T16:09:05;17.30;99.90
32769;DHT22;23049;54.304;8.826;2022-08-01T16:11:31;17.30;99.90
32769;DHT22;23049;54.304;8.826;2022-08-01T16:13:57;17.30;99.90
32769;DHT22;23049;54.304;8.826;2022-08-01T16:16:23;17.30;99.90
32769;DHT22;23049;54.304;8.826;2022-08-01T16:18:49;17.20;99.90
32769;DHT22;23049;54.304;8.826;2022-08-01T16:21:15;17.20;99.90
32769;DHT22;23049;54.304;8.826;2022-08-01T16:23:42;17.00;99.90
32769;DHT22;23049;54.304;8.826;2022-08-01T16:26:08;17.20;99.90
32769;DHT22;23049;54.304;8.826;2022-08-01T16:28:34;17.10;99.90
32769;DHT22;23049;54.304;8.826;2022-08-01T16:31:00;17.10;99.90
32769;DHT22;23049;54.304;8.826;2022-08-01T16:33:26;17.20;99.90
32769;DHT22;23049;54.304;8.826;2022-08-01T16:35:51;17.60;99.90
32769;DHT22;23049;54.304;8.826;2022-08-01T16:38:18;17.40;99.90
32769;DHT22;23049;54.304;8.826;2022-08-01T16:40:46;17.30;99.90
32769;DHT22;23049;54.304;8.826;2022-08-01T16:43:13;17.40;99.90
32769;DHT22;23049;54.304;8.826;2022-08-01T16:45:40;17.40;99.90
32769;DHT22;23049;54.304;8.826;2022-08-01T16:48:07;17.30;99.90
32769;DHT22;23049;54.304;8.826;2022-08-01T16:50:34;17.20;99.90
32769;DHT22;23049;54.304;8.826;2022-08-01T16:52:59;17.10;99.90
32769;DHT22;23049;54.304;8.826;2022-08-01T16:55:25;17.00;99.90
32769;DHT22;23049;54.304;8.826;2022-08-01T16:57:51;17.00;99.90
32769;DHT22;23049;54.304;8.826;2022-08-01T17:00:17;17.00;99.90
32769;DHT22;23049;54.304;8.826;2022-08-01T17:02:45;17.00;99.90